Time;durP1;ratioP1;P1;durP2;ratioP2;P2;SDS_P1;SDS_P2;PMS_P1;PMS_P2;Temp;Humidity;BMP_temperature;BMP_pressure;BME280_temperature;BME280_humidity;BME280_pressure;Samples;Min_cycle;Max_cycle;Signal;HPM_P1;HPM_P2
2021/06/16 00:01:33;;;;;;;9.97;8.60;;;;;;;22.72;65.71;99294.69;5158298;27;20430;-72
2021/06/16 00:04:01;;;;;;;10.80;8.90;;;;;;;22.79;65.42;99294.84;5158516;27;20819;-73
2021/06/16 00:06:28;;;;;;;9.87;8.47;;;;;;;22.79;65.42;99290.22;5158332;27;20423;-73
2021/06/16 00:08:54;;;;;;;8.57;7.83;;;;;;;22.84;65.05;99289.72;5158767;27;20473;-73
2021/06/16 00:11:21;;;;;;;9.93;8.97;;;;;;;22.73;65.24;99288.19;5159188;27;20750;-73
2021/06/16 00:13:47;;;;;;;10.50;8.60;;;;;;;;;;5158880;27;20505;-72
2021/06/16 00:16:14;;;;;;;9.73;8.73;;;;;;;22.86;64.52;99288.50;5158322;27;20500;-73
2021/06/16 00:18:41;;;;;;;9.67;8.60;;;;;;;22.73;65.28;99282.69;5158464;27;20968;-71
2021/06/16 00:21:09;;;;;;;13.17;8.70;;;;;;;22.56;66.27;99281.84;5157846;27;20459;-72
2021/06/16 00:23:35;;;;;;;9.90;8.60;;;;;;;22.58;65.83;99276.22;5158541;27;20904;-73
2021/06/16 00:26:02;;;;;;;10.43;9.03;;;;;;;22.52;66.52;99279.63;5157895;27;20442;-72
2021/06/16 00:28:28;;;;;;;9.67;8.60;;;;;;;22.69;65.67;99273.09;5157580;27;20422;-73
2021/06/16 00:30:55;;;;;;;9.90;9.00;;;;;;;22.66;65.59;99273.47;5158558;27;20419;-73
2021/06/16 00:33:22;;;;;;;10.07;9.10;;;;;;;22.72;65.45;99278.22;5157761;27;20785;-72
2021/06/16 00:35:48;;;;;;;10.37;9.13;;;;;;;22.73;65.00;99274.47;5157784;27;20500;-72
2021/06/16 00:38:16;;;;;;;9.00;8.20;;;;;;;22.86;64.30;99276.63;5158064;27;20427;-73
2021/06/16 00:40:43;;;;;;;9.60;8.70;;;;;;;22.93;63.58;99276.78;5158170;27;20433;-73
2021/06/16 00:43:10;;;;;;;12.70;8.67;;;;;;;23.02;63.09;99278.50;5157498;27;20415;-73
2021/06/16 00:45:37;;;;;;;11.20;8.77;;;;;;;23.06;63.17;99266.13;5156871;27;20430;-73
2021/06/16 00:48:04;;;;;;;9.33;8.50;;;;;;;22.98;63.35;99272.50;5157595;27;20450;-73
2021/06/16 00:50:34;;;;;;;10.07;9.17;;;;;;;22.90;63.84;99267.03;5157650;27;20440;-72
2021/06/16 00:53:01;;;;;;;9.27;8.37;;;;;;;22.64;65.03;99265.38;5157244;27;20513;-73
2021/06/16 00:55:29;;;;;;;10.10;8.93;;;;;;;22.44;65.99;99278.63;5157493;27;20437;-73
2021/06/16 00:57:57;;;;;;;9.90;8.90;;;;;;;22.35;66.28;99276.91;5157550;27;20459;-72
2021/06/16 01:00:28;;;;;;;10.63;9.30;;;;;;;22.10;67.17;99273.31;5157572;27;20880;-72
2021/06/16 01:03:01;;;;;;;10.50;9.60;;;;;;;22.19;67.14;99271.41;5157131;27;20486;-73
2021/06/16 01:05:31;;;;;;;9.83;8.93;;;;;;;22.06;67.53;99272.78;5157013;27;20960;-73
2021/06/16 01:07:59;;;;;;;10.83;9.73;;;;;;;22.11;67.34;99282.38;5157384;27;20420;-72
2021/06/16 01:10:29;;;;;;;11.40;9.90;;;;;;;22.08;67.54;99272.63;5157038;27;20526;-73
2021/06/16 01:13:03;;;;;;;10.17;9.27;;;;;;;22.18;67.39;99267.84;5157110;27;20459;-74
2021/06/16 01:15:38;;;;;;;10.20;9.30;;;;;;;22.26;67.14;99267.84;5156967;27;20518;-73
2021/06/16 01:18:06;;;;;;;12.77;9.07;;;;;;;22.10;67.60;99267.81;5157131;27;20498;-73
2021/06/16 01:20:35;;;;;;;10.13;9.13;;;;;;;22.03;67.72;99266.81;5157336;27;20738;-72
2021/06/16 01:23:32;;;;;;;10.90;9.70;;;;;;;22.03;67.74;99272.28;5156661;27;20428;-72
2021/06/16 01:26:15;;;;;;;10.83;9.77;;;;;;;21.97;68.04;99270.22;5152275;27;20831;-72
2021/06/16 01:28:44;;;;;;;11.10;10.20;;;;;;;21.78;68.69;99269.50;5157096;27;20416;-73
2021/06/16 01:31:12;;;;;;;11.67;10.57;;;;;;;21.78;68.80;99266.78;5156638;27;20870;-72
2021/06/16 01:33:40;;;;;;;11.93;10.93;;;;;;;21.68;69.19;99270.69;5157098;27;20415;-72
2021/06/16 01:36:08;;;;;;;10.80;9.90;;;;;;;21.64;69.43;99268.28;5156878;27;20476;-73
2021/06/16 01:38:35;;;;;;;14.00;10.60;;;;;;;21.51;70.03;99267.06;5156521;27;20506;-72
2021/06/16 01:41:05;;;;;;;18.73;9.90;;;;;;;21.54;70.20;99266.72;5156883;27;20430;-73
2021/06/16 01:43:33;;;;;;;12.13;10.30;;;;;;;21.45;70.54;99263.94;5156725;27;20904;-73
2021/06/16 01:46:02;;;;;;;12.60;11.10;;;;;;;21.38;71.10;99260.16;5156359;27;20444;-72
2021/06/16 01:48:30;;;;;;;11.57;10.57;;;;;;;21.43;70.67;99256.94;5156758;27;20929;-73
2021/06/16 01:50:58;;;;;;;11.27;10.20;;;;;;;21.40;70.93;99251.78;5156835;27;20419;-74
2021/06/16 01:53:26;;;;;;;11.50;10.30;;;;;;;21.30;71.65;99257.41;5156405;27;20457;-72
2021/06/16 01:55:52;;;;;;;11.70;10.67;;;;;;;21.42;71.19;99260.72;5155790;27;20446;-73
2021/06/16 01:58:20;;;;;;;12.53;10.33;;;;;;;21.41;70.89;99257.13;5156388;27;20483;-72
2021/06/16 02:00:52;;;;;;;11.73;10.60;;;;;;;21.24;71.66;99249.84;5156418;27;20456;-73
2021/06/16 02:03:18;;;;;;;12.43;11.23;;;;;;;21.29;71.64;99254.81;5156476;27;20511;-72
2021/06/16 02:05:45;;;;;;;11.40;10.20;;;;;;;21.42;70.63;99250.59;5156202;27;20866;-73
2021/06/16 02:08:14;;;;;;;10.57;9.57;;;;;;;21.44;70.53;99258.66;5156246;27;20423;-73
2021/06/16 02:10:45;;;;;;;11.50;10.40;;;;;;;21.28;71.02;99244.88;5156223;27;20435;-73
2021/06/16 02:13:15;;;;;;;12.03;10.83;;;;;;;21.08;72.23;99241.56;5156439;27;20429;-73
2021/06/16 02:15:47;;;;;;;11.07;10.17;;;;;;;21.16;71.81;99242.44;5156276;27;20426;-72
2021/06/16 02:18:17;;;;;;;12.23;10.93;;;;;;;21.23;71.37;99243.50;5155649;27;20463;-73
2021/06/16 02:20:44;;;;;;;11.07;10.10;;;;;;;21.10;72.15;99243.13;5155832;27;20462;-73
2021/06/16 02:23:12;;;;;;;13.90;11.53;;;;;;;21.09;72.24;99240.53;5155609;27;20476;-73
2021/06/16 02:25:39;;;;;;;12.60;11.50;;;;;;;21.08;72.40;99233.38;5155679;27;20520;-73
2021/06/16 02:28:06;;;;;;;15.53;11.80;;;;;;;20.94;72.74;99223.88;5155839;27;20829;-72
2021/06/16 02:30:33;;;;;;;12.30;11.00;;;;;;;21.03;72.61;99223.75;5155879;27;20510;-73
2021/06/16 02:32:59;;;;;;;12.07;10.97;;;;;;;20.96;72.33;99228.19;5156015;27;20428;-73
2021/06/16 02:35:28;;;;;;;12.43;11.10;;;;;;;21.14;72.02;99227.22;5155814;27;20435;-72
2021/06/16 02:38:03;;;;;;;12.97;11.57;;;;;;;21.09;72.20;99229.59;5155584;27;20896;-72
2021/06/16 02:40:31;;;;;;;12.20;10.90;;;;;;;21.14;71.72;99230.81;5155307;27;20427;-72
2021/06/16 02:42:58;;;;;;;12.50;11.30;;;;;;;21.05;72.09;99226.31;5155658;27;21019;-73
2021/06/16 02:45:28;;;;;;;12.77;11.50;;;;;;;21.14;72.08;99227.22;5155701;27;20455;-73
2021/06/16 02:47:56;;;;;;;12.33;11.20;;;;;;;21.18;71.39;99226.72;5155788;27;20445;-72
2021/06/16 02:50:28;;;;;;;12.33;11.10;;;;;;;21.27;71.38;99227.59;5155411;27;20522;-72
2021/06/16 02:52:56;;;;;;;12.00;10.80;;;;;;;21.24;71.18;99220.56;5155117;27;20434;-73
2021/06/16 02:55:25;;;;;;;12.47;11.37;;;;;;;21.20;71.34;99226.56;5155126;27;20455;-73
2021/06/16 02:57:53;;;;;;;12.77;11.57;;;;;;;21.30;71.03;99227.28;5155071;27;20482;-72
2021/06/16 03:00:22;;;;;;;12.70;11.50;;;;;;;21.16;71.10;99228.75;5155328;27;20777;-72
2021/06/16 03:02:50;;;;;;;14.93;11.20;;;;;;;21.11;71.56;99231.13;5155497;27;20957;-72
2021/06/16 03:05:20;;;;;;;12.97;11.57;;;;;;;20.93;72.18;99224.91;5154894;27;20538;-72
2021/06/16 03:07:50;;;;;;;13.70;12.40;;;;;;;20.91;72.57;99222.34;5155310;27;20869;-72
2021/06/16 03:10:18;;;;;;;12.23;11.07;;;;;;;20.93;72.38;99222.19;5155307;27;20947;-73
2021/06/16 03:12:47;;;;;;;11.80;10.80;;;;;;;20.93;72.60;99219.44;5155081;27;20419;-73
2021/06/16 03:15:15;;;;;;;12.73;11.43;;;;;;;20.90;72.72;99219.78;5155283;27;20439;-72
2021/06/16 03:17:44;;;;;;;13.40;11.03;;;;;;;20.96;72.34;99221.84;5155132;27;20482;-73
2021/06/16 03:20:13;;;;;;;14.00;12.60;;;;;;;20.87;72.94;99220.09;5154884;27;20459;-72
2021/06/16 03:22:41;;;;;;;12.80;11.47;;;;;;;20.89;73.00;99224.38;5155561;27;20772;-73
2021/06/16 03:25:11;;;;;;;13.70;12.00;;;;;;;20.99;72.42;99221.53;5155368;27;20419;-73
2021/06/16 03:27:39;;;;;;;13.33;12.03;;;;;;;20.98;72.35;99230.75;5155150;27;20517;-73
2021/06/16 03:30:07;;;;;;;12.67;11.57;;;;;;;20.99;72.25;99222.38;5155179;27;20817;-72
2021/06/16 03:32:36;;;;;;;13.83;12.57;;;;;;;20.89;72.85;99229.00;5155381;27;20446;-72
2021/06/16 03:35:04;;;;;;;13.10;11.90;;;;;;;21.02;72.16;99230.25;5155169;27;20431;-72
2021/06/16 03:37:32;;;;;;;12.43;11.23;;;;;;;21.03;71.98;99233.88;5154692;27;20470;-73
2021/06/16 03:40:00;;;;;;;14.00;12.60;;;;;;;20.99;72.06;99230.59;5155136;27;20411;-73
2021/06/16 03:42:28;;;;;;;13.47;12.20;;;;;;;21.06;71.86;99235.41;5153779;27;20769;-73
2021/06/16 03:44:57;;;;;;;13.17;11.77;;;;;;;20.89;72.29;99234.47;5154630;27;20892;-72
2021/06/16 03:47:28;;;;;;;14.20;12.50;;;;;;;20.76;73.45;99229.47;5154337;27;20529;-72
2021/06/16 03:49:56;;;;;;;14.33;12.30;;;;;;;20.67;73.71;99223.09;5154479;27;20435;-73
2021/06/16 03:52:23;;;;;;;13.07;11.70;;;;;;;20.55;74.42;99229.81;5154905;27;20960;-73
2021/06/16 03:54:50;;;;;;;14.60;13.20;;;;;;;20.45;75.02;99226.34;5154652;27;20543;-73
2021/06/16 03:57:20;;;;;;;14.60;12.20;;;;;;;20.41;75.25;99229.38;5154611;27;20810;-73
2021/06/16 03:59:49;;;;;;;12.70;11.50;;;;;;;20.58;74.50;99229.53;5154663;27;20426;-73
2021/06/16 04:02:16;;;;;;;13.83;12.53;;;;;;;20.47;74.70;99227.91;5154993;27;20841;-72
2021/06/16 04:04:42;;;;;;;13.50;12.17;;;;;;;20.62;74.27;99230.91;5154838;27;21002;-72
2021/06/16 04:07:10;;;;;;;14.27;12.77;;;;;;;20.45;75.17;99224.47;5151861;27;20514;-72
2021/06/16 04:09:38;;;;;;;14.07;12.67;;;;;;;20.44;75.75;99221.88;5154311;27;20420;-72
2021/06/16 04:12:05;;;;;;;15.37;13.87;;;;;;;20.49;75.30;99222.28;5154539;27;20518;-72
2021/06/16 04:14:32;;;;;;;14.97;13.50;;;;;;;20.33;75.84;99220.31;5154661;27;20416;-71
2021/06/16 04:17:00;;;;;;;14.73;13.40;;;;;;;20.53;75.21;99220.91;5154669;27;20419;-71
2021/06/16 04:19:26;;;;;;;20.67;16.40;;;;;;;20.73;74.66;99216.09;5155679;27;20499;-72
2021/06/16 04:21:53;;;;;;;13.63;12.33;;;;;;;20.66;74.59;99215.03;5158334;27;20424;-70
2021/06/16 04:24:20;;;;;;;17.40;13.87;;;;;;;20.55;74.88;99208.78;5157868;27;20435;-72
2021/06/16 04:26:46;;;;;;;14.97;13.63;;;;;;;20.49;75.39;99214.06;5158445;27;20435;-72
2021/06/16 04:29:13;;;;;;;14.40;12.90;;;;;;;20.58;74.74;99214.00;5158122;27;20420;-72
2021/06/16 04:31:39;;;;;;;14.53;13.03;;;;;;;20.79;73.94;99215.44;5158490;27;20507;-71
2021/06/16 04:34:07;;;;;;;14.07;12.67;;;;;;;20.74;73.93;99213.22;5157904;27;20435;-72
2021/06/16 04:36:34;;;;;;;14.07;12.67;;;;;;;20.79;73.97;99218.19;5157910;27;20446;-72
2021/06/16 04:39:01;;;;;;;15.10;13.60;;;;;;;20.94;73.07;99208.34;5157595;27;20473;-72
2021/06/16 04:41:27;;;;;;;16.67;13.13;;;;;;;21.16;72.24;99216.94;5157758;27;20420;-72
2021/06/16 04:43:54;;;;;;;15.27;12.63;;;;;;;21.06;72.42;99217.09;5157913;27;20454;-72
2021/06/16 04:46:21;;;;;;;15.47;13.60;;;;;;;21.06;72.55;99217.09;5157898;27;20434;-72
2021/06/16 04:48:47;;;;;;;14.53;13.17;;;;;;;21.20;71.85;99201.91;5158024;27;20530;-74
2021/06/16 04:51:18;;;;;;;14.93;13.50;;;;;;;21.38;71.19;99208.13;5158218;27;20439;-72
2021/06/16 04:53:44;;;;;;;14.70;13.30;;;;;;;21.38;71.01;99204.53;5157166;27;20439;-72
2021/06/16 04:56:11;;;;;;;14.50;13.00;;;;;;;21.60;70.51;99211.28;5157532;27;20998;-72
2021/06/16 04:58:38;;;;;;;14.37;12.97;;;;;;;21.73;69.60;99214.38;5157398;27;20963;-72
2021/06/16 05:01:04;;;;;;;15.13;13.67;;;;;;;21.84;69.08;99211.28;5157327;27;20467;-72
2021/06/16 05:03:31;;;;;;;15.47;13.97;;;;;;;21.77;69.52;99207.50;5156987;27;20422;-72
2021/06/16 05:05:57;;;;;;;17.20;14.40;;;;;;;21.78;69.41;99214.72;5156014;27;20812;-72
2021/06/16 05:08:25;;;;;;;13.93;12.83;;;;;;;21.89;69.12;99207.16;5157305;27;20424;-72
2021/06/16 05:10:52;;;;;;;14.20;12.90;;;;;;;22.00;68.39;99207.69;5157424;27;20758;-71
2021/06/16 05:13:23;;;;;;;15.07;13.60;;;;;;;22.08;68.00;99207.66;5157310;27;20431;-72
2021/06/16 05:15:50;;;;;;;14.60;13.20;;;;;;;22.23;67.67;99216.09;5156802;27;20439;-72
2021/06/16 05:18:16;;;;;;;18.73;14.37;;;;;;;22.39;67.47;99219.84;5157142;27;20466;-72
2021/06/16 05:20:43;;;;;;;16.03;13.60;;;;;;;22.59;66.59;99214.81;5157103;27;20461;-72
2021/06/16 05:23:09;;;;;;;13.53;12.27;;;;;;;22.79;65.68;99204.28;5156947;27;20769;-72
2021/06/16 05:25:37;;;;;;;16.70;12.53;;;;;;;23.01;65.11;99206.28;5156976;27;20530;-74
2021/06/16 05:28:05;;;;;;;14.47;12.97;;;;;;;22.98;64.97;99197.53;5157001;27;20422;-72
2021/06/16 05:30:31;;;;;;;15.83;12.57;;;;;;;23.03;64.77;99198.72;5156712;27;20776;-72
2021/06/16 05:32:58;;;;;;;14.80;13.17;;;;;;;23.20;64.64;99199.50;5157109;27;20817;-73
2021/06/16 05:35:25;;;;;;;13.03;11.83;;;;;;;23.44;63.42;99193.00;5156454;27;20423;-72
2021/06/16 05:37:51;;;;;;;13.67;12.23;;;;;;;23.64;62.91;99198.00;5155989;27;20563;-73
2021/06/16 05:40:18;;;;;;;12.93;11.83;;;;;;;23.56;63.50;99198.06;5155454;27;20510;-72
2021/06/16 05:42:46;;;;;;;14.10;12.83;;;;;;;23.40;64.30;99194.38;5156162;27;20427;-73
2021/06/16 05:45:14;;;;;;;14.87;13.27;;;;;;;23.59;63.72;99200.47;5167887;27;20536;-73
2021/06/16 05:47:40;;;;;;;13.30;12.03;;;;;;;23.52;63.64;99201.19;5177033;27;20449;-72
2021/06/16 05:50:08;;;;;;;12.97;11.77;;;;;;;23.69;63.36;99198.31;5161085;27;20470;-73
2021/06/16 05:52:35;;;;;;;14.10;11.60;;;;;;;23.85;62.89;99197.34;5156369;27;20439;-73
2021/06/16 05:55:01;;;;;;;13.70;11.07;;;;;;;23.84;62.52;99195.66;5156454;27;20919;-73
2021/06/16 05:57:28;;;;;;;13.97;12.77;;;;;;;23.72;63.14;99193.31;5155898;27;20423;-73
2021/06/16 05:59:57;;;;;;;12.67;11.50;;;;;;;23.80;63.24;99197.06;5155645;27;20530;-73
2021/06/16 06:02:24;;;;;;;15.53;12.30;;;;;;;24.10;61.91;99195.25;5165178;27;20438;-72
2021/06/16 06:04:50;;;;;;;13.37;12.07;;;;;;;24.19;61.79;99196.03;5177065;27;20470;-72
2021/06/16 06:07:17;;;;;;;13.20;12.10;;;;;;;24.03;62.04;99192.38;5177069;27;20526;-73
2021/06/16 06:09:43;;;;;;;15.13;11.70;;;;;;;24.20;61.29;99192.25;5176251;27;20421;-73
2021/06/16 06:12:10;;;;;;;13.43;12.03;;;;;;;24.24;61.38;99188.94;5156574;27;20420;-72
2021/06/16 06:14:37;;;;;;;13.27;11.80;;;;;;;24.45;60.39;99187.34;5156140;27;20518;-73
2021/06/16 06:17:05;;;;;;;13.23;11.93;;;;;;;24.44;60.12;99185.63;5156020;27;20498;-72
2021/06/16 06:19:32;;;;;;;12.90;10.43;;;;;;;24.40;60.33;99185.16;5155688;27;20475;-72
2021/06/16 06:21:59;;;;;;;11.40;10.40;;;;;;;24.20;60.58;99187.59;5155961;27;20511;-73
2021/06/16 06:24:25;;;;;;;13.67;12.37;;;;;;;24.32;60.48;99188.84;5156238;27;20957;-73
2021/06/16 06:26:52;;;;;;;12.80;11.30;;;;;;;24.16;60.85;99189.00;5155529;27;20439;-72
2021/06/16 06:29:19;;;;;;;12.67;11.10;;;;;;;24.18;61.11;99191.56;5155642;27;20514;-72
2021/06/16 06:31:46;;;;;;;13.00;11.80;;;;;;;24.22;60.65;99184.63;5155727;27;20765;-74
2021/06/16 06:34:13;;;;;;;12.13;11.00;;;;;;;24.45;60.06;99187.34;5155730;27;20908;-72
2021/06/16 06:36:40;;;;;;;12.20;10.97;;;;;;;24.31;60.24;99184.38;5155300;27;20812;-72
2021/06/16 06:39:07;;;;;;;12.20;11.10;;;;;;;24.39;60.19;99182.59;5155188;27;20597;-73
2021/06/16 06:41:33;;;;;;;11.80;10.70;;;;;;;24.11;60.86;99186.81;5154436;27;20428;-74
2021/06/16 06:44:00;;;;;;;12.70;11.23;;;;;;;24.34;60.43;99177.66;5154348;27;20439;-73
2021/06/16 06:46:27;;;;;;;11.93;10.83;;;;;;;24.09;61.00;99179.81;5153951;27;20514;-73
2021/06/16 06:48:53;;;;;;;11.80;10.60;;;;;;;24.48;60.21;99170.47;5155415;27;20534;-73
2021/06/16 06:51:21;;;;;;;12.57;11.40;;;;;;;24.46;59.74;99170.63;5155305;27;20441;-72
2021/06/16 06:53:48;;;;;;;11.87;10.67;;;;;;;24.81;58.57;99167.34;5154734;27;20474;-72
2021/06/16 06:56:14;;;;;;;11.93;10.83;;;;;;;25.09;57.78;99176.59;5154630;27;20431;-73
2021/06/16 06:58:43;;;;;;;17.70;12.00;;;;;;;25.07;57.80;99175.94;5154364;27;20558;-73
2021/06/16 07:01:10;;;;;;;11.77;10.73;;;;;;;25.24;57.18;99173.00;5155248;27;20507;-73
2021/06/16 07:03:37;;;;;;;11.53;10.53;;;;;;;25.21;56.97;99165.09;5154428;27;20471;-73
2021/06/16 07:06:04;;;;;;;11.03;10.03;;;;;;;25.05;57.43;99175.25;5154064;27;20455;-73
2021/06/16 07:08:32;;;;;;;12.40;11.20;;;;;;;25.20;57.22;99167.00;5154344;27;20438;-72
2021/06/16 07:10:58;;;;;;;12.00;10.87;;;;;;;25.50;56.67;99175.19;5154929;27;20484;-72
2021/06/16 07:13:25;;;;;;;11.90;10.70;;;;;;;25.68;55.90;99175.56;5155178;27;20476;-72
2021/06/16 07:15:52;;;;;;;12.73;9.73;;;;;;;25.48;55.75;99167.09;5154598;27;20526;-73
2021/06/16 07:18:18;;;;;;;10.50;9.60;;;;;;;25.44;56.20;99168.56;5154485;27;20471;-72
2021/06/16 07:20:45;;;;;;;14.13;10.40;;;;;;;25.59;56.21;99165.72;5154966;27;20431;-73
2021/06/16 07:23:12;;;;;;;13.00;11.10;;;;;;;25.24;57.08;99156.47;5154726;27;20427;-72
2021/06/16 07:25:40;;;;;;;11.40;10.40;;;;;;;25.21;57.37;99162.34;5155054;27;20804;-73
2021/06/16 07:28:06;;;;;;;11.23;10.13;;;;;;;25.46;56.78;99160.94;5154445;27;20455;-72
2021/06/16 07:30:33;;;;;;;11.53;10.43;;;;;;;25.87;55.07;99156.66;5154912;27;20590;-73
2021/06/16 07:33:00;;;;;;;10.70;9.83;;;;;;;26.15;53.30;99157.56;5154471;27;20497;-73
2021/06/16 07:35:27;;;;;;;10.50;9.70;;;;;;;26.30;53.62;99162.97;5154846;27;20438;-72
2021/06/16 07:37:53;;;;;;;12.20;11.03;;;;;;;26.57;52.52;99157.66;5154919;27;20423;-74
2021/06/16 07:40:20;;;;;;;10.63;9.70;;;;;;;26.57;52.43;99164.03;5154471;27;20439;-73
2021/06/16 07:42:48;;;;;;;11.73;10.53;;;;;;;26.87;51.75;99152.72;5154497;27;20432;-72
2021/06/16 07:45:15;;;;;;;11.80;10.80;;;;;;;27.11;51.00;99156.84;5154699;27;20534;-73
2021/06/16 07:47:42;;;;;;;11.47;9.70;;;;;;;27.16;50.61;99157.09;5154299;27;20439;-72
2021/06/16 07:50:09;;;;;;;10.93;9.90;;;;;;;26.76;51.47;99156.91;5154193;27;20515;-73
2021/06/16 07:52:36;;;;;;;10.10;8.77;;;;;;;27.08;50.65;99157.25;5154190;27;20491;-72
2021/06/16 07:55:04;;;;;;;9.13;8.23;;;;;;;27.44;47.76;99150.59;5156290;27;20786;-72
2021/06/16 07:57:31;;;;;;;8.80;7.90;;;;;;;27.55;46.38;99161.03;5158377;27;20427;-72
2021/06/16 07:59:59;;;;;;;8.43;7.73;;;;;;;27.93;45.17;99160.47;5158532;27;20482;-72
2021/06/16 08:02:27;;;;;;;7.83;7.10;;;;;;;28.13;44.43;99168.78;5158084;27;20434;-73
2021/06/16 08:04:54;;;;;;;9.37;8.43;;;;;;;28.46;43.33;99159.59;5157815;27;20551;-72
2021/06/16 08:07:22;;;;;;;12.87;8.90;;;;;;;28.72;42.99;99161.47;5158294;27;20771;-73
2021/06/16 08:09:48;;;;;;;11.13;8.47;;;;;;;28.92;43.23;99163.31;5157867;27;20451;-73
2021/06/16 08:12:16;;;;;;;9.70;8.80;;;;;;;28.87;43.15;99169.50;5158577;27;20435;-74
2021/06/16 08:14:43;;;;;;;7.80;7.10;;;;;;;29.05;42.33;99163.25;5158240;27;20770;-73
2021/06/16 08:17:11;;;;;;;10.43;7.90;;;;;;;29.11;42.51;99159.66;5157925;27;20499;-73
2021/06/16 08:19:38;;;;;;;17.87;10.77;;;;;;;29.10;42.93;99153.28;5157902;27;20562;-73
2021/06/16 08:22:09;;;;;;;9.13;8.23;;;;;;;29.26;42.76;99149.13;5158177;27;20450;-73
2021/06/16 08:24:36;;;;;;;9.00;8.10;;;;;;;29.41;41.55;99139.66;5158074;27;20434;-73
2021/06/16 08:27:03;;;;;;;10.80;9.70;;;;;;;29.39;42.13;99150.13;5159032;27;20443;-72
2021/06/16 08:29:31;;;;;;;8.50;7.80;;;;;;;29.34;41.91;99138.84;5157975;27;20433;-71
2021/06/16 08:31:58;;;;;;;8.03;7.43;;;;;;;28.84;42.80;99137.56;5157811;27;20770;-73
2021/06/16 08:34:26;;;;;;;8.73;7.90;;;;;;;28.87;42.91;99142.66;5158007;27;20455;-73
2021/06/16 08:36:55;;;;;;;9.17;8.33;;;;;;;29.01;43.07;99145.38;5157697;27;20424;-72
2021/06/16 08:39:22;;;;;;;9.63;8.67;;;;;;;29.30;42.13;99136.50;5157494;27;20459;-73
2021/06/16 08:41:49;;;;;;;8.73;7.43;;;;;;;29.24;41.93;99131.88;5157382;27;20463;-72
2021/06/16 08:44:16;;;;;;;9.37;7.37;;;;;;;28.95;42.89;99138.81;5157008;27;20877;-73
2021/06/16 08:46:43;;;;;;;8.90;8.00;;;;;;;29.24;42.11;99128.22;5157437;27;20459;-73
2021/06/16 08:49:11;;;;;;;11.83;7.90;;;;;;;29.60;41.33;99130.38;5157799;27;20793;-73
2021/06/16 08:51:40;;;;;;;10.97;9.10;;;;;;;29.36;41.43;99131.16;5157935;27;20825;-73
2021/06/16 08:54:09;;;;;;;7.80;7.20;;;;;;;29.28;41.56;99127.59;5157867;27;20442;-73
2021/06/16 08:56:36;;;;;;;7.60;6.90;;;;;;;29.02;41.26;99127.69;5156986;27;20455;-73
2021/06/16 08:59:03;;;;;;;7.90;7.20;;;;;;;29.05;41.03;99125.31;5157109;27;20507;-73
2021/06/16 09:01:29;;;;;;;12.60;7.93;;;;;;;29.10;40.98;99133.88;5157148;27;20433;-73
2021/06/16 09:03:56;;;;;;;6.97;6.40;;;;;;;29.46;39.05;99129.56;5157088;27;20419;-72
2021/06/16 09:06:28;;;;;;;11.60;7.77;;;;;;;29.31;38.92;99129.06;5156793;27;20510;-73
2021/06/16 09:09:00;;;;;;;7.03;6.30;;;;;;;29.17;39.08;99135.72;5157089;27;20431;-73
2021/06/16 09:11:28;;;;;;;8.00;6.40;;;;;;;29.07;39.52;99125.09;5157552;27;20889;-72
2021/06/16 09:14:11;;;;;;;8.03;7.27;;;;;;;29.21;39.47;99123.97;5157052;27;20506;-73
2021/06/16 09:16:38;;;;;;;7.40;6.70;;;;;;;29.31;39.16;99116.03;5157063;27;20869;-72
2021/06/16 09:19:18;;;;;;;8.00;7.30;;;;;;;29.64;38.60;99125.19;5156837;27;20459;-73
2021/06/16 09:21:44;;;;;;;7.13;6.43;;;;;;;29.26;40.21;99123.31;5157145;27;20427;-71
2021/06/16 09:24:13;;;;;;;7.80;7.10;;;;;;;29.56;39.85;99119.94;5155945;27;20452;-74
2021/06/16 09:26:41;;;;;;;7.60;6.90;;;;;;;29.74;39.12;99120.06;5156330;27;20459;-74
2021/06/16 09:29:08;;;;;;;6.70;6.20;;;;;;;30.16;38.39;99117.53;5156024;27;20849;-74
2021/06/16 09:31:36;;;;;;;7.10;6.50;;;;;;;30.06;37.35;99115.28;5136397;27;20930;-73
2021/06/16 09:34:08;;;;;;;7.40;6.63;;;;;;;29.94;38.09;99111.56;5143465;27;20434;-72
2021/06/16 09:36:47;;;;;;;12.07;10.83;;;;;;;30.20;37.93;99115.16;5156551;27;20832;-72
2021/06/16 09:39:18;;;;;;;13.17;7.73;;;;;;;30.57;37.02;99116.06;5156113;27;20474;-73
2021/06/16 09:41:56;;;;;;;8.40;6.30;;;;;;;30.69;36.79;99110.59;5156058;27;20893;-73
2021/06/16 09:44:44;;;;;;;6.53;5.97;;;;;;;30.59;36.76;99121.41;5155959;27;20441;-73
2021/06/16 09:47:13;;;;;;;8.00;6.40;;;;;;;30.79;36.33;99115.59;5156515;27;20443;-74
2021/06/16 09:49:47;;;;;;;8.27;6.40;;;;;;;30.59;36.49;99121.41;5156320;27;20511;-72
2021/06/16 09:52:30;;;;;;;8.57;6.07;;;;;;;30.49;36.72;99114.44;5156017;27;20971;-73
2021/06/16 09:54:58;;;;;;;6.50;6.00;;;;;;;30.68;35.87;99114.44;5154176;27;20454;-73
2021/06/16 09:57:25;;;;;;;9.93;8.93;;;;;;;30.84;35.59;99112.97;5156340;27;20913;-72
2021/06/16 09:59:57;;;;;;;6.70;6.10;;;;;;;30.88;33.98;99105.91;5156269;27;20459;-73
2021/06/16 10:02:28;;;;;;;6.57;5.50;;;;;;;30.98;33.50;99099.78;5156125;27;20853;-72
2021/06/16 10:04:56;;;;;;;6.27;5.77;;;;;;;31.03;32.79;99100.78;5154858;27;20478;-73
2021/06/16 10:07:24;;;;;;;6.60;4.97;;;;;;;31.01;32.51;99105.72;5155912;27;20525;-73
2021/06/16 10:09:58;;;;;;;6.00;5.50;;;;;;;30.93;33.76;99104.09;5155873;27;20889;-72
2021/06/16 10:12:27;;;;;;;7.03;6.33;;;;;;;31.12;33.49;99102.16;5155813;27;20416;-71
2021/06/16 10:14:54;;;;;;;6.50;5.50;;;;;;;31.13;33.41;99100.22;5155743;27;20439;-73
2021/06/16 10:17:21;;;;;;;6.00;5.50;;;;;;;31.29;32.77;99099.56;5154670;27;20443;-73
2021/06/16 10:19:49;;;;;;;5.33;4.93;;;;;;;31.24;33.37;99095.81;5155818;27;20498;-73
2021/06/16 10:22:17;;;;;;;8.17;6.50;;;;;;;31.18;33.83;99092.00;5155821;27;20438;-72
2021/06/16 10:24:44;;;;;;;6.33;5.33;;;;;;;31.33;33.28;99095.22;5156193;27;20420;-73
2021/06/16 10:27:17;;;;;;;5.43;4.97;;;;;;;30.82;33.62;99093.78;5155418;27;20493;-71
2021/06/16 10:29:48;;;;;;;6.17;5.67;;;;;;;30.57;34.31;99087.44;5155585;27;20415;-73
2021/06/16 10:32:15;;;;;;;5.20;4.70;;;;;;;30.60;33.74;99087.84;5155545;27;20447;-72
2021/06/16 10:34:59;;;;;;;6.70;5.40;;;;;;;30.69;34.94;99078.09;5155004;27;20467;-73
2021/06/16 10:37:27;;;;;;;9.13;5.73;;;;;;;30.76;34.43;99078.88;5155279;27;20439;-73
2021/06/16 10:40:33;;;;;;;5.80;4.87;;;;;;;31.10;33.96;99078.47;5155565;27;20473;-73
2021/06/16 10:43:28;;;;;;;5.47;5.03;;;;;;;31.38;32.67;99077.81;5139911;27;20447;-72
2021/06/16 10:46:11;;;;;;;5.33;4.93;;;;;;;31.28;32.83;99072.00;5155584;27;20964;-71
2021/06/16 10:48:59;;;;;;;5.37;4.83;;;;;;;31.32;32.28;99076.84;5155502;27;20458;-73
2021/06/16 10:51:44;;;;;;;8.33;4.53;;;;;;;31.27;32.16;99071.13;5154390;27;20434;-73
2021/06/16 10:54:29;;;;;;;7.07;5.87;;;;;;;31.21;32.80;99074.88;5154766;27;20932;-72
2021/06/16 10:56:59;;;;;;;5.37;4.97;;;;;;;31.00;32.76;99072.59;5154811;27;20468;-73
2021/06/16 11:00:03;;;;;;;5.03;4.53;;;;;;;31.27;32.55;99073.91;5154538;27;20560;-73
2021/06/16 11:03:08;;;;;;;5.00;4.57;;;;;;;31.27;31.71;99071.13;5154597;27;20546;-71
2021/06/16 11:05:38;;;;;;;4.20;3.80;;;;;;;31.25;31.61;99070.53;5154216;27;20463;-73
2021/06/16 11:08:07;;;;;;;5.37;4.40;;;;;;;31.51;30.94;99074.03;5154127;27;20432;-73
2021/06/16 11:10:54;;;;;;;4.80;4.40;;;;;;;31.50;31.14;99069.53;5154777;27;20776;-73
2021/06/16 11:13:41;;;;;;;5.50;4.90;;;;;;;31.51;31.08;99071.25;5154454;27;20437;-73
2021/06/16 11:16:39;;;;;;;4.33;4.03;;;;;;;31.58;31.24;99072.81;5154870;27;20455;-72
2021/06/16 11:19:28;;;;;;;9.57;5.43;;;;;;;31.56;29.54;99066.66;5154580;27;20442;-73
2021/06/16 11:21:57;;;;;;;4.23;3.83;;;;;;;31.67;29.39;99056.63;5153926;27;20466;-72
2021/06/16 11:25:11;;;;;;;4.27;3.97;;;;;;;31.40;29.86;99063.69;5154141;27;20432;-73
2021/06/16 11:28:09;;;;;;;4.20;3.77;;;;;;;31.11;29.78;99046.78;5154273;27;20435;-72
2021/06/16 11:30:47;;;;;;;4.37;3.97;;;;;;;31.45;29.80;99039.66;5122006;27;20841;-72
2021/06/16 11:33:38;;;;;;;4.77;3.80;;;;;;;31.05;30.46;99043.03;5159191;27;20507;-73
2021/06/16 11:36:09;;;;;;;5.53;4.50;;;;;;;31.21;30.71;99032.28;5158442;27;20419;-73